createdAt,value
2018-11-12T05:43:37.349Z,2.40
2018-11-12T05:46:06.149Z,2.50
2018-11-12T05:48:34.497Z,2.50
2018-11-12T05:51:03.405Z,2.50
2018-11-12T05:53:31.776Z,2.50
2018-11-12T05:56:00.496Z,2.50
2018-11-12T05:58:28.872Z,2.50
2018-11-12T06:00:57.451Z,2.50
2018-11-12T06:03:26.449Z,2.50
2018-11-12T06:05:54.824Z,2.40
2018-11-12T06:08:23.362Z,2.50
2018-11-12T06:10:51.744Z,2.50
2018-11-12T06:13:20.289Z,2.50
2018-11-12T06:15:48.962Z,2.50
2018-11-12T06:18:17.333Z,2.50
2018-11-12T06:20:45.839Z,2.50
2018-11-12T06:23:14.424Z,2.50
2018-11-12T06:25:42.794Z,2.50
2018-11-12T06:28:11.188Z,2.50
2018-11-12T06:30:39.844Z,2.50
2018-11-12T06:33:08.221Z,2.50
2018-11-12T06:35:37.589Z,2.60
2018-11-12T06:38:06.262Z,2.60
2018-11-12T06:40:34.689Z,2.60
2018-11-12T06:43:13.501Z,2.70
2018-11-12T06:45:41.825Z,2.70
2018-11-12T06:48:10.192Z,2.80
2018-11-12T06:50:38.615Z,2.80
2018-11-12T06:53:07.340Z,2.90
2018-11-12T06:55:35.688Z,2.90
2018-11-12T06:58:04.317Z,3.00
2018-11-12T07:00:34.193Z,3.10
2018-11-12T07:03:02.628Z,3.10
2018-11-12T07:05:31.952Z,3.10
2018-11-12T07:08:00.869Z,3.20
2018-11-12T07:10:30.247Z,3.30
2018-11-12T07:13:00.191Z,3.40
2018-11-12T07:15:29.424Z,3.40
2018-11-12T07:17:58.429Z,3.40
2018-11-12T07:20:27.700Z,3.30
2018-11-12T07:22:56.312Z,3.30
2018-11-12T07:25:26.223Z,3.30
2018-11-12T07:27:54.878Z,3.40
2018-11-12T07:30:24.588Z,3.40
2018-11-12T07:32:54.223Z,3.50
2018-11-12T07:35:23.262Z,3.60
2018-11-12T07:37:53.160Z,3.70
2018-11-12T07:40:21.974Z,3.90
2018-11-12T07:42:51.111Z,4.10
2018-11-12T07:45:21.501Z,4.20
2018-11-12T07:47:51.028Z,4.40
2018-11-12T07:50:21.199Z,4.60
2018-11-12T07:52:49.638Z,4.70
2018-11-12T07:55:21.542Z,5.00
2018-11-12T07:57:51.493Z,5.00
2018-11-12T08:00:22.047Z,4.80
2018-11-12T08:02:54.687Z,4.60
2018-11-12T08:05:23.111Z,4.60
2018-11-12T08:07:51.478Z,4.70
2018-11-12T08:10:20.510Z,5.00
2018-11-12T08:12:49.036Z,5.30
2018-11-12T08:15:19.211Z,5.50
2018-11-12T08:17:47.952Z,5.50
2018-11-12T08:20:17.973Z,5.60
2018-11-12T08:22:47.979Z,5.50
2018-11-12T08:25:16.577Z,5.60
2018-11-12T08:27:45.974Z,5.80
2018-11-12T08:30:19.917Z,6.00
2018-11-12T08:32:49.549Z,6.80
2018-11-12T08:35:18.628Z,8.30
2018-11-12T08:37:47.980Z,9.80
2018-11-12T08:40:18.110Z,10.90
2018-11-12T08:42:46.560Z,11.90
2018-11-12T08:45:15.573Z,12.40
2018-11-12T08:47:45.657Z,12.90
2018-11-12T08:50:16.617Z,12.50
2018-11-12T08:52:46.527Z,11.90
2018-11-12T08:55:16.574Z,11.50
2018-11-12T08:57:46.688Z,11.00
2018-11-12T09:00:15.806Z,11.70
2018-11-12T09:02:44.470Z,12.70
2018-11-12T09:05:14.392Z,13.20
2018-11-12T09:07:44.320Z,13.50
2018-11-12T09:10:14.912Z,13.90
2018-11-12T09:12:44.000Z,14.60
2018-11-12T09:15:13.487Z,14.80
2018-11-12T09:17:42.720Z,15.40
2018-11-12T09:20:13.338Z,15.20
2018-11-12T09:22:41.976Z,15.50
2018-11-12T09:25:13.921Z,16.00
2018-11-12T09:27:42.322Z,15.70
2018-11-12T09:30:14.221Z,16.40
2018-11-12T09:32:43.203Z,17.00
2018-11-12T09:35:41.989Z,17.60
2018-11-12T09:38:11.052Z,18.40
2018-11-12T09:40:39.892Z,18.60
2018-11-12T09:43:08.526Z,20.00
2018-11-12T09:45:36.936Z,20.30
2018-11-12T09:48:05.589Z,20.00
2018-11-12T09:50:34.227Z,19.40
2018-11-12T09:53:03.849Z,18.90
2018-11-12T09:55:33.473Z,19.10
2018-11-12T09:58:03.380Z,18.90
2018-11-12T10:00:32.248Z,19.60
2018-11-12T10:03:01.475Z,19.80
2018-11-12T10:05:31.031Z,19.80
2018-11-12T10:08:04.660Z,19.80
2018-11-12T10:10:37.538Z,19.90
2018-11-12T10:13:08.032Z,19.90
2018-11-12T10:15:36.860Z,20.10
2018-11-12T10:18:06.206Z,20.80
2018-11-12T10:20:31.341Z,20.30
2018-11-12T10:23:00.002Z,19.50
2018-11-12T10:25:28.368Z,20.50
2018-11-12T10:27:56.746Z,20.60
2018-11-12T10:30:25.128Z,21.00
2018-11-12T10:32:54.159Z,21.90
2018-11-12T10:35:22.861Z,20.80
2018-11-12T10:37:51.245Z,21.20
2018-11-12T10:40:21.725Z,21.00
2018-11-12T10:42:50.260Z,20.90
2018-11-12T10:45:18.735Z,19.90
2018-11-12T10:47:48.780Z,19.90
2018-11-12T10:50:17.332Z,20.50
2018-11-12T10:52:45.900Z,20.50
2018-11-12T10:55:16.326Z,19.80
2018-11-12T10:57:45.273Z,19.40
2018-11-12T11:00:20.534Z,19.30
2018-11-12T11:02:54.604Z,18.90
2018-11-12T11:05:23.385Z,17.80
2018-11-12T11:07:52.672Z,17.70
2018-11-12T11:10:22.164Z,16.80
2018-11-12T11:12:50.595Z,16.40
2018-11-12T11:15:19.386Z,16.30
2018-11-12T11:17:48.435Z,15.80
2018-11-12T11:20:17.275Z,15.40
2018-11-12T11:22:46.185Z,15.10
2018-11-12T11:25:14.698Z,15.10
2018-11-12T11:27:43.656Z,15.20
2018-11-12T11:30:15.198Z,15.20
2018-11-12T11:32:44.428Z,15.00
2018-11-12T11:35:14.541Z,14.80
2018-11-12T11:37:43.068Z,14.90
2018-11-12T11:40:17.747Z,14.80
2018-11-12T11:42:46.265Z,14.70
2018-11-12T11:45:15.533Z,14.30
2018-11-12T11:47:44.984Z,14.30
2018-11-12T11:50:17.137Z,14.10
2018-11-12T11:52:45.985Z,14.00
2018-11-12T11:55:16.758Z,14.10
2018-11-12T11:57:45.656Z,13.40
2018-11-12T12:00:18.977Z,13.20
2018-11-12T12:02:48.803Z,13.20
2018-11-12T12:05:18.269Z,13.00
2018-11-12T12:07:48.185Z,13.00
2018-11-12T12:10:17.388Z,13.10
2018-11-12T12:12:47.398Z,13.00
2018-11-12T12:15:18.358Z,12.80
2018-11-12T12:17:46.950Z,12.80
2018-11-12T12:20:19.318Z,12.70
2018-11-12T12:22:48.009Z,12.80
2018-11-12T12:25:17.326Z,12.80
2018-11-12T12:27:46.464Z,12.80
2018-11-12T12:30:18.023Z,12.90
2018-11-12T12:32:47.634Z,13.00
2018-11-12T12:35:16.516Z,12.80
2018-11-12T12:37:46.302Z,12.70
2018-11-12T12:40:16.438Z,12.70
2018-11-12T12:42:45.535Z,12.80
2018-11-12T12:45:16.473Z,12.70
2018-11-12T12:47:45.467Z,12.60
2018-11-12T12:50:15.162Z,12.90
2018-11-12T12:52:43.877Z,12.80
2018-11-12T12:55:13.478Z,13.00
2018-11-12T12:57:42.629Z,13.00
2018-11-12T13:00:16.696Z,12.90
2018-11-12T13:02:45.216Z,12.80
2018-11-12T13:05:14.350Z,13.00
2018-11-12T13:07:43.214Z,13.00
2018-11-12T13:10:13.584Z,13.20
2018-11-12T13:12:42.596Z,13.50
2018-11-12T13:15:13.796Z,13.60
2018-11-12T13:17:43.017Z,13.70
2018-11-12T13:20:13.390Z,13.70
2018-11-12T13:22:42.834Z,13.70
2018-11-12T13:25:11.951Z,13.60
2018-11-12T13:27:40.966Z,13.30
2018-11-12T13:30:13.037Z,13.20
2018-11-12T13:32:42.540Z,13.10
2018-11-12T13:35:12.863Z,13.30
2018-11-12T13:37:41.339Z,13.40
2018-11-12T13:40:14.558Z,13.20
2018-11-12T13:42:44.742Z,13.50
2018-11-12T13:45:13.566Z,13.40
2018-11-12T13:47:42.017Z,13.50
2018-11-12T13:50:15.841Z,13.60
2018-11-12T13:52:44.904Z,13.70
2018-11-12T13:55:14.369Z,13.60
2018-11-12T13:57:49.725Z,13.40
2018-11-12T14:00:22.973Z,13.20
2018-11-12T14:02:53.217Z,13.10
2018-11-12T14:05:26.214Z,13.00
2018-11-12T14:07:56.550Z,12.90
2018-11-12T14:10:27.806Z,12.80
2018-11-12T14:12:57.484Z,12.80
2018-11-12T14:15:26.460Z,12.90
2018-11-12T14:17:55.446Z,12.90
2018-11-12T14:20:25.337Z,12.80
2018-11-12T14:22:53.940Z,12.80
2018-11-12T14:25:23.609Z,12.90
2018-11-12T14:27:53.366Z,12.70
2018-11-12T14:30:24.981Z,12.70
2018-11-12T14:32:53.868Z,12.70
2018-11-12T14:35:22.441Z,12.70
2018-11-12T14:37:50.857Z,12.70
2018-11-12T14:40:20.215Z,12.60
2018-11-12T14:42:48.708Z,12.60
2018-11-12T14:45:19.076Z,12.50
2018-11-12T14:47:48.087Z,12.50
2018-11-12T14:50:16.705Z,12.30
2018-11-12T14:52:45.369Z,12.20
2018-11-12T14:55:15.395Z,12.10
2018-11-12T14:57:43.995Z,12.00
2018-11-12T15:00:16.875Z,11.90
2018-11-12T15:02:45.600Z,11.80
2018-11-12T15:05:15.212Z,11.70
2018-11-12T15:07:43.688Z,11.50
2018-11-12T15:10:13.199Z,11.40
2018-11-12T15:12:42.485Z,11.30
2018-11-12T15:15:12.261Z,11.30
2018-11-12T15:17:40.656Z,11.20
2018-11-12T15:20:14.964Z,11.20
2018-11-12T15:22:43.691Z,11.10
2018-11-12T15:25:15.726Z,11.00
2018-11-12T15:27:44.797Z,11.00
2018-11-12T15:30:15.940Z,10.90
2018-11-12T15:32:45.216Z,10.80
2018-11-12T15:35:14.135Z,10.70
2018-11-12T15:37:43.742Z,10.60
2018-11-12T15:40:13.238Z,10.40
2018-11-12T15:42:42.212Z,10.30
2018-11-12T15:45:15.027Z,10.30
2018-11-12T15:47:44.643Z,10.10
2018-11-12T15:50:15.461Z,10.10
2018-11-12T15:52:44.788Z,10.00
2018-11-12T15:55:15.828Z,9.90
2018-11-12T15:57:43.220Z,9.90
2018-11-12T16:00:15.187Z,9.80
2018-11-12T16:02:43.851Z,9.80
2018-11-12T16:05:13.414Z,9.70
2018-11-12T16:07:42.709Z,9.70
2018-11-12T16:10:14.605Z,9.60
2018-11-12T16:12:43.461Z,9.60
2018-11-12T16:15:13.519Z,9.60
2018-11-12T16:17:42.369Z,9.60
2018-11-12T16:20:17.651Z,9.50
2018-11-12T16:22:47.446Z,9.50
2018-11-12T16:25:17.352Z,9.50
2018-11-12T16:27:45.756Z,9.40
2018-11-12T16:30:14.445Z,9.40
2018-11-12T16:32:43.967Z,9.30
2018-11-12T16:35:17.445Z,9.30
2018-11-12T16:37:46.802Z,9.20
2018-11-12T16:40:15.311Z,9.10
2018-11-12T16:42:45.526Z,9.00
2018-11-12T16:45:14.957Z,8.90
2018-11-12T16:47:43.685Z,8.90
2018-11-12T16:50:13.395Z,8.90
2018-11-12T16:52:41.888Z,8.90
2018-11-12T16:55:14.180Z,8.80
2018-11-12T16:57:42.660Z,8.80
2018-11-12T17:00:13.133Z,8.70
2018-11-12T17:02:42.629Z,8.60
2018-11-12T17:05:13.485Z,8.60
2018-11-12T17:07:42.466Z,8.50
2018-11-12T17:10:13.105Z,8.40
2018-11-12T17:12:42.636Z,8.30
2018-11-12T17:15:12.463Z,8.20
2018-11-12T17:17:40.970Z,8.20
2018-11-12T17:20:11.016Z,8.10
2018-11-12T17:22:39.828Z,8.00
2018-11-12T17:25:10.383Z,8.00
2018-11-12T17:27:38.885Z,8.00
2018-11-12T17:30:11.181Z,8.00
2018-11-12T17:32:40.047Z,8.00
2018-11-12T17:35:10.550Z,7.90
2018-11-12T17:37:38.986Z,7.80
2018-11-12T17:40:10.738Z,7.80
2018-11-12T17:42:39.227Z,7.80
2018-11-12T17:45:11.192Z,7.80
2018-11-12T17:47:39.921Z,7.70
2018-11-12T17:50:09.818Z,7.60
2018-11-12T17:52:38.927Z,7.60
2018-11-12T17:55:07.867Z,7.50
2018-11-12T17:57:37.150Z,7.50
2018-11-12T18:00:12.335Z,7.50
2018-11-12T18:02:40.799Z,7.50
2018-11-12T18:05:10.009Z,7.50
2018-11-12T18:07:38.807Z,7.50
2018-11-12T18:10:08.300Z,7.50
2018-11-12T18:12:37.500Z,7.40
2018-11-12T18:15:09.973Z,7.40
2018-11-12T18:17:38.440Z,7.40
2018-11-12T18:20:11.750Z,7.30
2018-11-12T18:22:40.551Z,7.20
2018-11-12T18:25:09.900Z,7.20
2018-11-12T18:27:38.964Z,7.10
2018-11-12T18:30:17.108Z,7.00
2018-11-12T18:32:46.248Z,7.00
2018-11-12T18:35:14.778Z,6.90
2018-11-12T18:37:43.508Z,6.90
2018-11-12T18:40:14.139Z,6.80
2018-11-12T18:42:42.586Z,6.80
2018-11-12T18:45:14.418Z,6.70
2018-11-12T18:47:43.664Z,6.80
2018-11-12T18:50:14.964Z,6.70
2018-11-12T18:52:43.742Z,6.70
2018-11-12T18:55:12.204Z,6.60
2018-11-12T18:57:42.687Z,6.60
2018-11-12T19:00:13.091Z,6.60
2018-11-12T19:02:41.516Z,6.70
2018-11-12T19:05:16.418Z,6.80
2018-11-12T19:07:46.398Z,6.90
2018-11-12T19:10:16.374Z,6.90
2018-11-12T19:12:45.899Z,6.90
2018-11-12T19:15:16.992Z,7.00
2018-11-12T19:17:47.552Z,7.00
2018-11-12T19:20:17.193Z,7.00
2018-11-12T19:22:45.700Z,7.00
2018-11-12T19:25:14.800Z,7.00
2018-11-12T19:27:44.164Z,7.00
2018-11-12T19:30:15.120Z,6.90
2018-11-12T19:32:44.890Z,6.90
2018-11-12T19:35:14.819Z,6.90
2018-11-12T19:37:43.556Z,6.80
2018-11-12T19:40:15.606Z,6.70
2018-11-12T19:42:45.480Z,6.70
2018-11-12T19:45:14.592Z,6.60
2018-11-12T19:47:43.747Z,6.50
2018-11-12T19:50:20.456Z,6.50
2018-11-12T19:52:49.947Z,6.40
2018-11-12T19:55:18.449Z,6.30
2018-11-12T19:57:47.517Z,6.20
2018-11-12T20:00:20.052Z,6.20
2018-11-12T20:02:49.720Z,6.10
2018-11-12T20:05:18.323Z,6.00
2018-11-12T20:07:46.764Z,5.80
2018-11-12T20:10:17.053Z,5.80
2018-11-12T20:12:45.550Z,5.70
2018-11-12T20:15:15.652Z,5.60
2018-11-12T20:17:45.506Z,5.60
2018-11-12T20:20:17.688Z,5.50
2018-11-12T20:22:47.112Z,5.50
2018-11-12T20:25:17.067Z,5.50
2018-11-12T20:27:46.373Z,5.50
2018-11-12T20:30:18.909Z,5.40
2018-11-12T20:32:48.101Z,5.30
2018-11-12T20:35:17.067Z,5.30
2018-11-12T20:37:45.463Z,5.20
2018-11-12T20:40:15.055Z,5.20
2018-11-12T20:42:44.472Z,5.20
2018-11-12T20:45:14.592Z,5.10
2018-11-12T20:47:44.221Z,5.10
2018-11-12T20:50:16.561Z,5.10
2018-11-12T20:52:45.748Z,5.10
2018-11-12T20:55:15.521Z,5.00
2018-11-12T20:57:44.460Z,5.00
2018-11-12T21:00:18.476Z,5.00
2018-11-12T21:02:48.710Z,5.00
2018-11-12T21:05:17.847Z,4.90
2018-11-12T21:07:46.333Z,4.90
2018-11-12T21:10:16.830Z,4.90
2018-11-12T21:12:46.471Z,4.80
2018-11-12T21:15:16.358Z,4.80
2018-11-12T21:17:45.317Z,4.80
2018-11-12T21:20:17.368Z,4.70
2018-11-12T21:22:45.847Z,4.70
2018-11-12T21:25:16.018Z,4.70
2018-11-12T21:27:44.644Z,4.80
2018-11-12T21:30:19.281Z,4.80
2018-11-12T21:32:48.103Z,4.80
2018-11-12T21:35:16.833Z,4.70
2018-11-12T21:37:46.180Z,4.70
2018-11-12T21:40:29.680Z,5.10
2018-11-12T21:42:58.367Z,4.90
2018-11-12T21:45:28.507Z,4.80
2018-11-12T21:47:57.167Z,4.70
2018-11-12T21:50:25.823Z,4.60
2018-11-12T21:52:54.854Z,4.60
2018-11-12T21:55:23.456Z,4.50
2018-11-12T21:57:55.007Z,4.40
2018-11-12T22:00:25.845Z,4.40
2018-11-12T22:03:00.960Z,4.30
2018-11-12T22:05:30.881Z,4.30
2018-11-12T22:08:00.081Z,4.30
2018-11-12T22:10:28.604Z,4.30
2018-11-12T22:12:57.244Z,4.30
2018-11-12T22:15:25.669Z,4.30
2018-11-12T22:17:54.113Z,4.30
2018-11-12T22:20:24.576Z,4.40
2018-11-12T22:22:52.988Z,4.40
2018-11-12T22:25:22.181Z,4.30
2018-11-12T22:27:51.491Z,4.30
2018-11-12T23:02:58.908Z,4.20
2018-11-12T23:05:27.850Z,4.20
2018-11-12T23:07:56.569Z,4.30
2018-11-12T23:10:25.373Z,4.30
2018-11-12T23:12:53.893Z,4.20
